Airfield :
LOGIN :

Register | Disclaimer

   EN    FR    IT 

 










Legend :    VFR   Marginal VFR   IFR   Intensive IFR   Very Intensive IFR
Visi :
Ceiling :
>= 8 km
>= 3000ft
5 to 8 km
1000 to 3000 ft
1500m to 5 km
500 to 1000 ft
800 to 1500m
200 to 500 ft
< 800m
< 200 ft
Symbols :   Thunderstorms  Fog  Heavy snow  Heavy precipitations  Wind > 20 kt
SIGMETs :     Misc.  Thunderstorms  Icing  Turbulence  Mountain Waves  Volcanic Ashes







- Airport Elevation : 12 ft
- IATA code : BCN


LEBL - Barcelone

CURRENT METAR :
  • 251700Z 14005KT 110V200 CAVOK 24/18 Q1016 NOSIG

EXPIRED METARs :
  • 251630Z 14006KT 110V180 CAVOK 25/17 Q1016 NOSIG
  • 251600Z 14007KT 110V170 CAVOK 25/17 Q1016 NOSIG
  • 251530Z 13007KT 100V170 CAVOK 24/17 Q1016 NOSIG
  • 251500Z 14007KT 100V190 CAVOK 25/16 Q1016 NOSIG
  • 251430Z 12008KT 100V160 CAVOK 25/17 Q1016 NOSIG

TAF TAF LEBL
Valid from the 25 at 18:00 until the 26 at 18:00 UTC


251700Z 2518/2618 15008KT 9999 FEW030 TX28/2612Z TN22/2606Z
BECMG 2518/2520 VRB04KT
TEMPO 2600/2607 32008KT
BECMG 2610/2613 18008KT
No reported NOTAMs for that airfield.



MET'MAP, your aeronautical weather chart ! - Copyright ORBIFLY December 2007 - Disclaimer

ORBIFLY MET'MAP TEAM :

Programming & Development : Alexandra Zaïnal
Concept & Development : Baudouin d'Aumeries
Co-Development & Prog : Marc-Olivier Méhu
Technical & hardware support : Manuel Goepfert

Contact : metmap@orbifly.com




SOURCES & CREDITS :

   NOAA